sensor_id;sensor_type;location;lat;lon;timestamp;P1;durP1;ratioP1;P2;durP2;ratioP2
40867;SDS011;26586;50.708;22.412;2022-08-11T00:01:43;4.55;;;1.90;;
40867;SDS011;26586;50.708;22.412;2022-08-11T00:04:11;3.15;;;2.10;;
40867;SDS011;26586;50.708;22.412;2022-08-11T00:06:38;2.58;;;1.67;;
40867;SDS011;26586;50.708;22.412;2022-08-11T00:09:06;3.65;;;1.90;;
40867;SDS011;26586;50.708;22.412;2022-08-11T00:11:48;4.68;;;1.70;;
40867;SDS011;26586;50.708;22.412;2022-08-11T00:14:18;2.53;;;1.67;;
40867;SDS011;26586;50.708;22.412;2022-08-11T00:16:59;2.78;;;1.50;;
40867;SDS011;26586;50.708;22.412;2022-08-11T00:19:39;3.95;;;1.63;;
40867;SDS011;26586;50.708;22.412;2022-08-11T00:22:09;3.85;;;1.52;;
40867;SDS011;26586;50.708;22.412;2022-08-11T00:24:39;3.30;;;1.77;;
40867;SDS011;26586;50.708;22.412;2022-08-11T00:27:06;2.25;;;1.40;;
40867;SDS011;26586;50.708;22.412;2022-08-11T00:29:32;3.38;;;1.42;;
40867;SDS011;26586;50.708;22.412;2022-08-11T00:31:59;2.22;;;1.30;;
40867;SDS011;26586;50.708;22.412;2022-08-11T00:34:32;3.22;;;1.27;;
40867;SDS011;26586;50.708;22.412;2022-08-11T00:37:02;2.55;;;1.50;;
40867;SDS011;26586;50.708;22.412;2022-08-11T00:39:31;2.78;;;1.45;;
40867;SDS011;26586;50.708;22.412;2022-08-11T00:48:18;2.63;;;1.40;;
40867;SDS011;26586;50.708;22.412;2022-08-11T01:06:46;1.83;;;1.30;;
40867;SDS011;26586;50.708;22.412;2022-08-11T01:27:50;2.55;;;1.35;;
40867;SDS011;26586;50.708;22.412;2022-08-11T01:30:46;2.65;;;1.40;;
40867;SDS011;26586;50.708;22.412;2022-08-11T01:36:36;2.92;;;1.10;;
40867;SDS011;26586;50.708;22.412;2022-08-11T01:42:18;2.08;;;1.08;;
40867;SDS011;26586;50.708;22.412;2022-08-11T01:59:08;4.03;;;1.40;;
40867;SDS011;26586;50.708;22.412;2022-08-11T02:01:44;5.30;;;1.50;;
40867;SDS011;26586;50.708;22.412;2022-08-11T02:12:38;4.32;;;1.38;;
40867;SDS011;26586;50.708;22.412;2022-08-11T02:15:47;2.70;;;1.10;;
40867;SDS011;26586;50.708;22.412;2022-08-11T02:18:22;2.53;;;1.40;;
40867;SDS011;26586;50.708;22.412;2022-08-11T02:21:14;2.70;;;1.17;;
40867;SDS011;26586;50.708;22.412;2022-08-11T02:24:03;4.45;;;1.58;;
40867;SDS011;26586;50.708;22.412;2022-08-11T02:26:42;2.30;;;1.48;;
40867;SDS011;26586;50.708;22.412;2022-08-11T02:38:10;3.75;;;1.52;;
40867;SDS011;26586;50.708;22.412;2022-08-11T02:41:16;2.95;;;1.33;;
40867;SDS011;26586;50.708;22.412;2022-08-11T02:49:54;4.07;;;1.50;;
40867;SDS011;26586;50.708;22.412;2022-08-11T02:55:13;5.43;;;1.50;;
40867;SDS011;26586;50.708;22.412;2022-08-11T02:57:48;6.28;;;1.73;;
40867;SDS011;26586;50.708;22.412;2022-08-11T03:00:24;4.93;;;1.50;;
40867;SDS011;26586;50.708;22.412;2022-08-11T03:08:49;4.78;;;1.70;;
40867;SDS011;26586;50.708;22.412;2022-08-11T03:14:35;5.63;;;2.00;;
40867;SDS011;26586;50.708;22.412;2022-08-11T03:17:54;2.22;;;1.40;;
40867;SDS011;26586;50.708;22.412;2022-08-11T03:21:11;2.90;;;1.90;;
40867;SDS011;26586;50.708;22.412;2022-08-11T03:26:05;5.35;;;1.88;;
40867;SDS011;26586;50.708;22.412;2022-08-11T03:31:34;4.40;;;1.70;;
40867;SDS011;26586;50.708;22.412;2022-08-11T03:34:09;8.10;;;1.88;;
40867;SDS011;26586;50.708;22.412;2022-08-11T03:39:45;6.22;;;1.70;;
40867;SDS011;26586;50.708;22.412;2022-08-11T03:42:48;2.30;;;1.45;;
40867;SDS011;26586;50.708;22.412;2022-08-11T03:50:52;4.90;;;1.75;;
40867;SDS011;26586;50.708;22.412;2022-08-11T03:56:17;3.70;;;1.58;;
40867;SDS011;26586;50.708;22.412;2022-08-11T04:19:29;7.45;;;1.67;;
40867;SDS011;26586;50.708;22.412;2022-08-11T04:39:10;5.38;;;1.58;;
40867;SDS011;26586;50.708;22.412;2022-08-11T04:56:47;3.83;;;1.30;;
40867;SDS011;26586;50.708;22.412;2022-08-11T04:59:42;3.10;;;1.42;;
40867;SDS011;26586;50.708;22.412;2022-08-11T05:03:02;2.25;;;1.60;;
40867;SDS011;26586;50.708;22.412;2022-08-11T05:08:54;4.00;;;2.20;;
40867;SDS011;26586;50.708;22.412;2022-08-11T05:12:08;1.70;;;1.10;;
40867;SDS011;26586;50.708;22.412;2022-08-11T05:14:49;1.85;;;1.17;;
40867;SDS011;26586;50.708;22.412;2022-08-11T05:17:45;1.73;;;1.00;;
40867;SDS011;26586;50.708;22.412;2022-08-11T05:20:54;4.00;;;1.73;;
40867;SDS011;26586;50.708;22.412;2022-08-11T05:23:44;2.53;;;1.65;;
40867;SDS011;26586;50.708;22.412;2022-08-11T05:26:38;3.90;;;0.90;;
40867;SDS011;26586;50.708;22.412;2022-08-11T05:30:16;2.45;;;0.90;;
40867;SDS011;26586;50.708;22.412;2022-08-11T05:32:39;1.95;;;0.80;;
40867;SDS011;26586;50.708;22.412;2022-08-11T05:38:23;3.38;;;1.13;;
40867;SDS011;26586;50.708;22.412;2022-08-11T05:41:10;1.95;;;0.85;;
40867;SDS011;26586;50.708;22.412;2022-08-11T05:44:00;1.98;;;1.02;;
40867;SDS011;26586;50.708;22.412;2022-08-11T05:46:46;2.38;;;1.13;;
40867;SDS011;26586;50.708;22.412;2022-08-11T05:49:32;1.77;;;0.93;;
40867;SDS011;26586;50.708;22.412;2022-08-11T05:52:25;2.33;;;0.75;;
40867;SDS011;26586;50.708;22.412;2022-08-11T05:55:12;2.65;;;0.98;;
40867;SDS011;26586;50.708;22.412;2022-08-11T05:58:01;2.35;;;1.17;;
40867;SDS011;26586;50.708;22.412;2022-08-11T06:00:29;3.35;;;0.95;;
40867;SDS011;26586;50.708;22.412;2022-08-11T06:05:37;2.33;;;0.90;;
40867;SDS011;26586;50.708;22.412;2022-08-11T06:08:06;1.50;;;0.93;;
40867;SDS011;26586;50.708;22.412;2022-08-11T06:10:34;4.72;;;1.15;;
40867;SDS011;26586;50.708;22.412;2022-08-11T06:13:02;2.55;;;1.13;;
40867;SDS011;26586;50.708;22.412;2022-08-11T06:15:32;2.60;;;1.10;;
40867;SDS011;26586;50.708;22.412;2022-08-11T06:18:08;2.08;;;1.05;;
40867;SDS011;26586;50.708;22.412;2022-08-11T06:20:57;5.50;;;2.13;;
40867;SDS011;26586;50.708;22.412;2022-08-11T06:23:29;11.75;;;6.88;;
40867;SDS011;26586;50.708;22.412;2022-08-11T06:25:58;8.90;;;7.05;;
40867;SDS011;26586;50.708;22.412;2022-08-11T06:28:31;6.70;;;4.00;;
40867;SDS011;26586;50.708;22.412;2022-08-11T06:31:01;5.18;;;2.00;;
40867;SDS011;26586;50.708;22.412;2022-08-11T06:33:37;3.33;;;1.50;;
40867;SDS011;26586;50.708;22.412;2022-08-11T06:36:45;4.07;;;1.20;;
40867;SDS011;26586;50.708;22.412;2022-08-11T06:39:26;2.88;;;1.80;;
40867;SDS011;26586;50.708;22.412;2022-08-11T06:42:02;1.83;;;1.20;;
40867;SDS011;26586;50.708;22.412;2022-08-11T06:44:40;3.15;;;1.33;;
40867;SDS011;26586;50.708;22.412;2022-08-11T06:47:22;2.35;;;1.20;;
40867;SDS011;26586;50.708;22.412;2022-08-11T06:52:35;3.03;;;1.08;;
40867;SDS011;26586;50.708;22.412;2022-08-11T06:55:06;1.35;;;1.00;;
40867;SDS011;26586;50.708;22.412;2022-08-11T06:57:38;3.80;;;1.38;;
40867;SDS011;26586;50.708;22.412;2022-08-11T07:00:27;2.60;;;1.20;;
40867;SDS011;26586;50.708;22.412;2022-08-11T07:03:09;6.13;;;1.77;;
40867;SDS011;26586;50.708;22.412;2022-08-11T07:14:14;2.75;;;1.10;;
40867;SDS011;26586;50.708;22.412;2022-08-11T07:17:06;3.58;;;1.20;;
40867;SDS011;26586;50.708;22.412;2022-08-11T07:19:39;3.28;;;1.20;;
40867;SDS011;26586;50.708;22.412;2022-08-11T07:22:29;2.97;;;1.30;;
40867;SDS011;26586;50.708;22.412;2022-08-11T07:25:16;3.22;;;1.05;;
40867;SDS011;26586;50.708;22.412;2022-08-11T07:28:03;2.80;;;0.90;;
40867;SDS011;26586;50.708;22.412;2022-08-11T07:30:52;3.30;;;1.10;;
40867;SDS011;26586;50.708;22.412;2022-08-11T07:33:24;2.97;;;0.80;;
40867;SDS011;26586;50.708;22.412;2022-08-11T07:35:57;2.30;;;0.80;;
40867;SDS011;26586;50.708;22.412;2022-08-11T07:38:27;3.90;;;1.10;;
40867;SDS011;26586;50.708;22.412;2022-08-11T07:41:18;1.25;;;0.50;;
40867;SDS011;26586;50.708;22.412;2022-08-11T07:43:50;1.15;;;0.57;;
40867;SDS011;26586;50.708;22.412;2022-08-11T07:46:19;3.30;;;0.70;;
40867;SDS011;26586;50.708;22.412;2022-08-11T07:49:06;1.70;;;0.70;;
40867;SDS011;26586;50.708;22.412;2022-08-11T07:51:53;2.17;;;0.80;;
40867;SDS011;26586;50.708;22.412;2022-08-11T07:54:38;1.80;;;0.80;;
40867;SDS011;26586;50.708;22.412;2022-08-11T07:57:09;1.20;;;0.70;;
40867;SDS011;26586;50.708;22.412;2022-08-11T07:59:55;2.78;;;0.90;;
40867;SDS011;26586;50.708;22.412;2022-08-11T08:02:41;3.05;;;0.90;;
40867;SDS011;26586;50.708;22.412;2022-08-11T08:05:26;3.00;;;0.90;;
40867;SDS011;26586;50.708;22.412;2022-08-11T08:08:13;3.00;;;1.20;;
40867;SDS011;26586;50.708;22.412;2022-08-11T08:10:58;3.38;;;0.90;;
40867;SDS011;26586;50.708;22.412;2022-08-11T08:13:44;3.35;;;1.27;;
40867;SDS011;26586;50.708;22.412;2022-08-11T08:16:30;2.37;;;0.63;;
40867;SDS011;26586;50.708;22.412;2022-08-11T08:19:16;1.00;;;0.75;;
40867;SDS011;26586;50.708;22.412;2022-08-11T08:21:44;2.05;;;1.20;;
40867;SDS011;26586;50.708;22.412;2022-08-11T08:24:12;2.25;;;0.82;;
40867;SDS011;26586;50.708;22.412;2022-08-11T08:26:39;2.35;;;0.90;;
40867;SDS011;26586;50.708;22.412;2022-08-11T08:29:23;2.70;;;1.15;;
40867;SDS011;26586;50.708;22.412;2022-08-11T08:32:17;1.05;;;0.60;;
40867;SDS011;26586;50.708;22.412;2022-08-11T08:34:46;4.95;;;1.35;;
40867;SDS011;26586;50.708;22.412;2022-08-11T08:37:18;5.53;;;3.00;;
40867;SDS011;26586;50.708;22.412;2022-08-11T08:39:46;3.90;;;0.90;;
40867;SDS011;26586;50.708;22.412;2022-08-11T08:44:46;1.80;;;0.95;;
40867;SDS011;26586;50.708;22.412;2022-08-11T08:47:17;2.15;;;0.60;;
40867;SDS011;26586;50.708;22.412;2022-08-11T08:49:45;1.92;;;1.10;;
40867;SDS011;26586;50.708;22.412;2022-08-11T08:52:18;3.33;;;1.00;;
40867;SDS011;26586;50.708;22.412;2022-08-11T08:54:48;1.77;;;0.95;;
40867;SDS011;26586;50.708;22.412;2022-08-11T08:57:19;1.98;;;1.10;;
40867;SDS011;26586;50.708;22.412;2022-08-11T08:59:48;2.40;;;1.20;;
40867;SDS011;26586;50.708;22.412;2022-08-11T09:02:19;3.30;;;0.85;;
40867;SDS011;26586;50.708;22.412;2022-08-11T09:04:50;5.70;;;0.90;;
40867;SDS011;26586;50.708;22.412;2022-08-11T09:09:48;3.78;;;0.88;;
40867;SDS011;26586;50.708;22.412;2022-08-11T09:12:18;1.10;;;0.77;;
40867;SDS011;26586;50.708;22.412;2022-08-11T09:14:49;1.25;;;0.60;;
40867;SDS011;26586;50.708;22.412;2022-08-11T09:17:29;2.63;;;0.82;;
40867;SDS011;26586;50.708;22.412;2022-08-11T09:19:59;2.85;;;1.08;;
40867;SDS011;26586;50.708;22.412;2022-08-11T09:22:30;3.38;;;0.98;;
40867;SDS011;26586;50.708;22.412;2022-08-11T09:25:18;2.35;;;0.82;;
40867;SDS011;26586;50.708;22.412;2022-08-11T09:28:04;1.92;;;0.88;;
40867;SDS011;26586;50.708;22.412;2022-08-11T09:30:34;5.22;;;1.25;;
40867;SDS011;26586;50.708;22.412;2022-08-11T09:33:01;2.33;;;0.82;;
40867;SDS011;26586;50.708;22.412;2022-08-11T09:35:30;3.47;;;1.20;;
40867;SDS011;26586;50.708;22.412;2022-08-11T09:38:01;2.45;;;1.00;;
40867;SDS011;26586;50.708;22.412;2022-08-11T09:40:48;2.28;;;1.10;;
40867;SDS011;26586;50.708;22.412;2022-08-11T09:43:16;1.77;;;0.90;;
40867;SDS011;26586;50.708;22.412;2022-08-11T09:46:02;3.45;;;1.17;;
40867;SDS011;26586;50.708;22.412;2022-08-11T09:48:30;1.50;;;1.10;;
40867;SDS011;26586;50.708;22.412;2022-08-11T09:51:10;3.15;;;1.40;;
40867;SDS011;26586;50.708;22.412;2022-08-11T09:53:38;3.03;;;1.20;;
40867;SDS011;26586;50.708;22.412;2022-08-11T09:56:14;8.70;;;1.40;;
40867;SDS011;26586;50.708;22.412;2022-08-11T09:59:00;2.63;;;0.85;;
40867;SDS011;26586;50.708;22.412;2022-08-11T10:01:29;3.20;;;0.70;;
40867;SDS011;26586;50.708;22.412;2022-08-11T10:06:55;0.80;;;0.70;;
40867;SDS011;26586;50.708;22.412;2022-08-11T10:09:38;2.78;;;0.70;;
40867;SDS011;26586;50.708;22.412;2022-08-11T10:12:13;1.63;;;0.80;;
40867;SDS011;26586;50.708;22.412;2022-08-11T10:15:03;1.33;;;0.90;;
40867;SDS011;26586;50.708;22.412;2022-08-11T10:17:52;3.28;;;0.70;;
40867;SDS011;26586;50.708;22.412;2022-08-11T10:20:41;2.00;;;0.70;;
40867;SDS011;26586;50.708;22.412;2022-08-11T10:23:12;1.35;;;0.60;;
40867;SDS011;26586;50.708;22.412;2022-08-11T10:25:57;3.03;;;1.00;;
40867;SDS011;26586;50.708;22.412;2022-08-11T10:28:42;1.83;;;0.70;;
40867;SDS011;26586;50.708;22.412;2022-08-11T10:31:09;2.78;;;0.70;;
40867;SDS011;26586;50.708;22.412;2022-08-11T10:33:55;1.75;;;0.82;;
40867;SDS011;26586;50.708;22.412;2022-08-11T10:36:26;2.05;;;0.80;;
40867;SDS011;26586;50.708;22.412;2022-08-11T10:38:58;1.50;;;0.95;;
40867;SDS011;26586;50.708;22.412;2022-08-11T10:41:27;1.35;;;0.82;;
40867;SDS011;26586;50.708;22.412;2022-08-11T10:44:12;1.53;;;0.50;;
40867;SDS011;26586;50.708;22.412;2022-08-11T10:46:41;2.03;;;1.00;;
40867;SDS011;26586;50.708;22.412;2022-08-11T10:49:25;0.98;;;0.50;;
40867;SDS011;26586;50.708;22.412;2022-08-11T10:54:39;0.82;;;0.55;;
40867;SDS011;26586;50.708;22.412;2022-08-11T10:57:29;0.80;;;0.65;;
40867;SDS011;26586;50.708;22.412;2022-08-11T11:00:14;0.90;;;0.70;;
40867;SDS011;26586;50.708;22.412;2022-08-11T11:02:44;1.10;;;0.70;;
40867;SDS011;26586;50.708;22.412;2022-08-11T11:05:12;1.42;;;0.80;;
40867;SDS011;26586;50.708;22.412;2022-08-11T11:08:00;1.70;;;0.80;;
40867;SDS011;26586;50.708;22.412;2022-08-11T11:10:59;3.00;;;0.95;;
40867;SDS011;26586;50.708;22.412;2022-08-11T11:13:28;2.45;;;0.73;;
40867;SDS011;26586;50.708;22.412;2022-08-11T11:16:14;1.75;;;0.70;;
40867;SDS011;26586;50.708;22.412;2022-08-11T11:21:30;1.17;;;0.60;;
40867;SDS011;26586;50.708;22.412;2022-08-11T11:35:03;0.93;;;0.50;;
40867;SDS011;26586;50.708;22.412;2022-08-11T11:37:34;1.55;;;0.60;;
40867;SDS011;26586;50.708;22.412;2022-08-11T11:40:12;1.77;;;0.70;;
40867;SDS011;26586;50.708;22.412;2022-08-11T11:42:41;2.70;;;0.60;;
40867;SDS011;26586;50.708;22.412;2022-08-11T11:45:10;1.08;;;0.70;;
40867;SDS011;26586;50.708;22.412;2022-08-11T11:47:39;2.85;;;0.70;;
40867;SDS011;26586;50.708;22.412;2022-08-11T11:52:33;1.17;;;0.80;;
40867;SDS011;26586;50.708;22.412;2022-08-11T11:55:00;1.60;;;0.65;;
40867;SDS011;26586;50.708;22.412;2022-08-11T11:57:28;3.92;;;1.00;;
40867;SDS011;26586;50.708;22.412;2022-08-11T12:00:13;2.28;;;0.70;;
40867;SDS011;26586;50.708;22.412;2022-08-11T12:03:00;0.70;;;0.50;;
40867;SDS011;26586;50.708;22.412;2022-08-11T12:05:30;1.10;;;0.63;;
40867;SDS011;26586;50.708;22.412;2022-08-11T12:07:59;3.30;;;0.70;;
40867;SDS011;26586;50.708;22.412;2022-08-11T12:10:47;1.15;;;0.68;;
40867;SDS011;26586;50.708;22.412;2022-08-11T12:13:40;1.00;;;0.63;;
40867;SDS011;26586;50.708;22.412;2022-08-11T12:16:12;0.90;;;0.68;;
40867;SDS011;26586;50.708;22.412;2022-08-11T12:18:40;0.80;;;0.50;;
40867;SDS011;26586;50.708;22.412;2022-08-11T12:21:07;0.63;;;0.45;;
40867;SDS011;26586;50.708;22.412;2022-08-11T12:23:36;1.15;;;0.60;;
40867;SDS011;26586;50.708;22.412;2022-08-11T12:26:22;1.02;;;0.40;;
40867;SDS011;26586;50.708;22.412;2022-08-11T12:29:08;3.20;;;0.88;;
40867;SDS011;26586;50.708;22.412;2022-08-11T12:31:37;1.27;;;0.70;;
40867;SDS011;26586;50.708;22.412;2022-08-11T12:34:11;1.77;;;0.50;;
40867;SDS011;26586;50.708;22.412;2022-08-11T12:36:39;0.70;;;0.50;;
40867;SDS011;26586;50.708;22.412;2022-08-11T12:39:15;1.35;;;0.50;;
40867;SDS011;26586;50.708;22.412;2022-08-11T12:41:45;2.03;;;0.60;;
40867;SDS011;26586;50.708;22.412;2022-08-11T12:44:30;1.20;;;0.65;;
40867;SDS011;26586;50.708;22.412;2022-08-11T12:47:17;1.10;;;0.50;;
40867;SDS011;26586;50.708;22.412;2022-08-11T12:49:46;1.80;;;0.57;;
40867;SDS011;26586;50.708;22.412;2022-08-11T12:52:43;2.45;;;0.70;;
40867;SDS011;26586;50.708;22.412;2022-08-11T12:55:16;0.60;;;0.40;;
40867;SDS011;26586;50.708;22.412;2022-08-11T12:58:07;0.80;;;0.60;;
40867;SDS011;26586;50.708;22.412;2022-08-11T13:00:43;2.10;;;0.73;;
40867;SDS011;26586;50.708;22.412;2022-08-11T13:03:28;4.00;;;0.82;;
40867;SDS011;26586;50.708;22.412;2022-08-11T13:06:16;0.50;;;0.40;;
40867;SDS011;26586;50.708;22.412;2022-08-11T13:08:44;0.85;;;0.50;;
40867;SDS011;26586;50.708;22.412;2022-08-11T13:11:13;3.65;;;0.80;;
40867;SDS011;26586;50.708;22.412;2022-08-11T13:14:00;1.90;;;0.75;;
40867;SDS011;26586;50.708;22.412;2022-08-11T13:16:28;2.55;;;1.05;;
40867;SDS011;26586;50.708;22.412;2022-08-11T13:18:57;3.90;;;1.63;;
40867;SDS011;26586;50.708;22.412;2022-08-11T13:21:25;1.80;;;0.70;;
40867;SDS011;26586;50.708;22.412;2022-08-11T13:23:52;1.55;;;1.05;;
40867;SDS011;26586;50.708;22.412;2022-08-11T13:26:21;1.40;;;0.70;;
40867;SDS011;26586;50.708;22.412;2022-08-11T13:28:48;1.08;;;0.77;;
40867;SDS011;26586;50.708;22.412;2022-08-11T13:31:15;2.72;;;0.80;;
40867;SDS011;26586;50.708;22.412;2022-08-11T13:33:48;2.20;;;0.60;;
40867;SDS011;26586;50.708;22.412;2022-08-11T13:36:20;1.38;;;0.85;;
40867;SDS011;26586;50.708;22.412;2022-08-11T13:38:50;5.78;;;0.60;;
40867;SDS011;26586;50.708;22.412;2022-08-11T13:41:20;5.68;;;1.10;;
40867;SDS011;26586;50.708;22.412;2022-08-11T13:44:07;3.45;;;1.25;;
40867;SDS011;26586;50.708;22.412;2022-08-11T13:46:36;5.10;;;1.00;;
40867;SDS011;26586;50.708;22.412;2022-08-11T13:49:04;3.88;;;1.33;;
40867;SDS011;26586;50.708;22.412;2022-08-11T13:51:33;4.13;;;1.08;;
40867;SDS011;26586;50.708;22.412;2022-08-11T13:54:05;3.08;;;0.80;;
40867;SDS011;26586;50.708;22.412;2022-08-11T13:56:34;1.75;;;0.82;;
40867;SDS011;26586;50.708;22.412;2022-08-11T13:59:04;2.45;;;0.95;;
40867;SDS011;26586;50.708;22.412;2022-08-11T14:01:33;2.55;;;0.90;;
40867;SDS011;26586;50.708;22.412;2022-08-11T14:04:08;3.30;;;0.60;;
40867;SDS011;26586;50.708;22.412;2022-08-11T14:06:37;2.35;;;1.00;;
40867;SDS011;26586;50.708;22.412;2022-08-11T14:09:13;4.50;;;1.10;;
40867;SDS011;26586;50.708;22.412;2022-08-11T14:11:43;4.25;;;1.35;;
40867;SDS011;26586;50.708;22.412;2022-08-11T14:14:30;8.00;;;1.67;;
40867;SDS011;26586;50.708;22.412;2022-08-11T14:17:04;4.03;;;1.65;;
40867;SDS011;26586;50.708;22.412;2022-08-11T14:19:31;9.95;;;2.72;;
40867;SDS011;26586;50.708;22.412;2022-08-11T14:22:04;6.82;;;2.47;;
40867;SDS011;26586;50.708;22.412;2022-08-11T14:24:31;5.15;;;1.52;;
40867;SDS011;26586;50.708;22.412;2022-08-11T14:27:18;5.93;;;1.73;;
40867;SDS011;26586;50.708;22.412;2022-08-11T14:29:47;3.78;;;1.38;;
40867;SDS011;26586;50.708;22.412;2022-08-11T14:32:14;7.47;;;1.27;;
40867;SDS011;26586;50.708;22.412;2022-08-11T14:34:42;4.95;;;1.25;;
40867;SDS011;26586;50.708;22.412;2022-08-11T14:37:11;4.15;;;1.10;;
40867;SDS011;26586;50.708;22.412;2022-08-11T14:39:46;2.20;;;1.23;;
40867;SDS011;26586;50.708;22.412;2022-08-11T14:42:19;2.05;;;1.00;;
40867;SDS011;26586;50.708;22.412;2022-08-11T14:45:05;2.78;;;0.93;;
40867;SDS011;26586;50.708;22.412;2022-08-11T14:48:01;4.35;;;0.90;;
40867;SDS011;26586;50.708;22.412;2022-08-11T14:50:32;3.90;;;1.05;;
40867;SDS011;26586;50.708;22.412;2022-08-11T14:53:00;2.10;;;1.10;;
40867;SDS011;26586;50.708;22.412;2022-08-11T14:55:35;4.57;;;1.30;;
40867;SDS011;26586;50.708;22.412;2022-08-11T14:58:25;2.28;;;1.60;;
40867;SDS011;26586;50.708;22.412;2022-08-11T15:00:57;2.33;;;1.23;;
40867;SDS011;26586;50.708;22.412;2022-08-11T15:03:28;3.42;;;1.17;;
40867;SDS011;26586;50.708;22.412;2022-08-11T15:05:59;1.75;;;1.00;;
40867;SDS011;26586;50.708;22.412;2022-08-11T15:08:31;3.00;;;1.00;;
40867;SDS011;26586;50.708;22.412;2022-08-11T15:11:18;2.10;;;0.90;;
40867;SDS011;26586;50.708;22.412;2022-08-11T15:14:05;2.22;;;1.00;;
40867;SDS011;26586;50.708;22.412;2022-08-11T15:16:35;0.77;;;0.75;;
40867;SDS011;26586;50.708;22.412;2022-08-11T15:19:22;1.88;;;0.93;;
40867;SDS011;26586;50.708;22.412;2022-08-11T15:21:50;4.35;;;1.40;;
40867;SDS011;26586;50.708;22.412;2022-08-11T15:24:35;2.58;;;1.05;;
40867;SDS011;26586;50.708;22.412;2022-08-11T15:27:08;3.22;;;1.10;;
40867;SDS011;26586;50.708;22.412;2022-08-11T15:29:57;2.20;;;1.35;;
40867;SDS011;26586;50.708;22.412;2022-08-11T15:32:44;1.70;;;1.00;;
40867;SDS011;26586;50.708;22.412;2022-08-11T15:35:30;5.75;;;1.60;;
40867;SDS011;26586;50.708;22.412;2022-08-11T15:38:17;3.78;;;2.25;;
40867;SDS011;26586;50.708;22.412;2022-08-11T15:40:46;6.72;;;1.77;;
40867;SDS011;26586;50.708;22.412;2022-08-11T15:43:39;2.80;;;1.77;;
40867;SDS011;26586;50.708;22.412;2022-08-11T15:46:46;6.15;;;1.95;;
40867;SDS011;26586;50.708;22.412;2022-08-11T15:51:55;2.78;;;1.02;;
40867;SDS011;26586;50.708;22.412;2022-08-11T15:54:29;2.77;;;1.20;;
40867;SDS011;26586;50.708;22.412;2022-08-11T15:56:57;4.32;;;1.30;;
40867;SDS011;26586;50.708;22.412;2022-08-11T15:59:33;5.43;;;1.23;;
40867;SDS011;26586;50.708;22.412;2022-08-11T16:02:21;4.82;;;1.50;;
40867;SDS011;26586;50.708;22.412;2022-08-11T16:05:10;6.47;;;1.92;;
40867;SDS011;26586;50.708;22.412;2022-08-11T16:07:38;4.97;;;1.42;;
40867;SDS011;26586;50.708;22.412;2022-08-11T16:15:47;3.15;;;1.10;;
40867;SDS011;26586;50.708;22.412;2022-08-11T16:19:07;3.53;;;1.30;;
40867;SDS011;26586;50.708;22.412;2022-08-11T16:21:33;2.33;;;1.27;;
40867;SDS011;26586;50.708;22.412;2022-08-11T16:24:03;10.73;;;3.53;;
40867;SDS011;26586;50.708;22.412;2022-08-11T16:26:31;3.58;;;1.17;;
40867;SDS011;26586;50.708;22.412;2022-08-11T16:29:01;2.80;;;1.20;;
40867;SDS011;26586;50.708;22.412;2022-08-11T16:31:27;1.38;;;1.00;;
40867;SDS011;26586;50.708;22.412;2022-08-11T16:33:57;3.13;;;1.17;;
40867;SDS011;26586;50.708;22.412;2022-08-11T16:39:10;2.15;;;1.10;;
40867;SDS011;26586;50.708;22.412;2022-08-11T16:41:38;4.85;;;1.10;;
40867;SDS011;26586;50.708;22.412;2022-08-11T16:44:25;4.60;;;1.00;;
40867;SDS011;26586;50.708;22.412;2022-08-11T16:47:15;1.70;;;1.05;;
40867;SDS011;26586;50.708;22.412;2022-08-11T16:49:45;4.68;;;1.10;;
40867;SDS011;26586;50.708;22.412;2022-08-11T16:52:14;4.53;;;1.17;;
40867;SDS011;26586;50.708;22.412;2022-08-11T16:54:41;5.20;;;1.10;;
40867;SDS011;26586;50.708;22.412;2022-08-11T16:57:09;3.63;;;1.42;;
40867;SDS011;26586;50.708;22.412;2022-08-11T16:59:58;3.95;;;1.23;;
40867;SDS011;26586;50.708;22.412;2022-08-11T17:02:41;5.15;;;1.08;;
40867;SDS011;26586;50.708;22.412;2022-08-11T17:05:31;7.43;;;1.20;;
40867;SDS011;26586;50.708;22.412;2022-08-11T17:08:19;2.40;;;1.02;;
40867;SDS011;26586;50.708;22.412;2022-08-11T17:11:08;4.90;;;1.00;;
40867;SDS011;26586;50.708;22.412;2022-08-11T17:13:55;4.00;;;1.35;;
40867;SDS011;26586;50.708;22.412;2022-08-11T17:16:31;1.80;;;1.00;;
40867;SDS011;26586;50.708;22.412;2022-08-11T17:19:00;10.95;;;1.40;;
40867;SDS011;26586;50.708;22.412;2022-08-11T17:23:59;1.58;;;1.00;;
40867;SDS011;26586;50.708;22.412;2022-08-11T17:26:41;1.70;;;1.13;;
40867;SDS011;26586;50.708;22.412;2022-08-11T17:31:51;4.25;;;1.00;;
40867;SDS011;26586;50.708;22.412;2022-08-11T17:34:37;2.70;;;1.13;;
40867;SDS011;26586;50.708;22.412;2022-08-11T17:37:25;1.83;;;1.27;;
40867;SDS011;26586;50.708;22.412;2022-08-11T17:39:52;2.40;;;1.20;;
40867;SDS011;26586;50.708;22.412;2022-08-11T17:42:20;2.72;;;1.25;;
40867;SDS011;26586;50.708;22.412;2022-08-11T17:45:07;2.10;;;1.33;;
40867;SDS011;26586;50.708;22.412;2022-08-11T17:47:53;1.60;;;1.33;;
40867;SDS011;26586;50.708;22.412;2022-08-11T17:53:05;3.38;;;2.17;;
40867;SDS011;26586;50.708;22.412;2022-08-11T17:55:51;4.13;;;1.45;;
40867;SDS011;26586;50.708;22.412;2022-08-11T17:58:37;3.63;;;2.43;;
40867;SDS011;26586;50.708;22.412;2022-08-11T18:01:24;4.00;;;2.28;;
40867;SDS011;26586;50.708;22.412;2022-08-11T18:03:52;4.45;;;2.58;;
40867;SDS011;26586;50.708;22.412;2022-08-11T18:06:19;7.68;;;4.35;;
40867;SDS011;26586;50.708;22.412;2022-08-11T18:08:47;5.07;;;3.08;;
40867;SDS011;26586;50.708;22.412;2022-08-11T18:11:33;4.68;;;2.35;;
40867;SDS011;26586;50.708;22.412;2022-08-11T18:14:19;5.05;;;2.20;;
40867;SDS011;26586;50.708;22.412;2022-08-11T18:17:04;2.65;;;2.10;;
40867;SDS011;26586;50.708;22.412;2022-08-11T18:19:49;3.55;;;2.30;;
40867;SDS011;26586;50.708;22.412;2022-08-11T18:22:37;4.85;;;2.20;;
40867;SDS011;26586;50.708;22.412;2022-08-11T18:25:26;4.10;;;1.38;;
40867;SDS011;26586;50.708;22.412;2022-08-11T18:28:16;4.10;;;1.40;;
40867;SDS011;26586;50.708;22.412;2022-08-11T18:31:12;6.15;;;2.17;;
40867;SDS011;26586;50.708;22.412;2022-08-11T18:34:03;2.85;;;1.75;;
40867;SDS011;26586;50.708;22.412;2022-08-11T18:37:03;5.53;;;1.95;;
40867;SDS011;26586;50.708;22.412;2022-08-11T18:39:59;6.90;;;3.90;;
40867;SDS011;26586;50.708;22.412;2022-08-11T18:42:48;6.00;;;3.00;;
40867;SDS011;26586;50.708;22.412;2022-08-11T18:45:35;3.42;;;2.80;;
40867;SDS011;26586;50.708;22.412;2022-08-11T18:48:23;9.60;;;3.00;;
40867;SDS011;26586;50.708;22.412;2022-08-11T18:51:10;8.80;;;3.50;;
40867;SDS011;26586;50.708;22.412;2022-08-11T18:53:59;4.93;;;2.88;;
40867;SDS011;26586;50.708;22.412;2022-08-11T18:56:48;4.28;;;2.65;;
40867;SDS011;26586;50.708;22.412;2022-08-11T18:59:35;4.53;;;2.58;;
40867;SDS011;26586;50.708;22.412;2022-08-11T19:02:23;4.05;;;2.33;;
40867;SDS011;26586;50.708;22.412;2022-08-11T19:05:09;3.70;;;2.00;;
40867;SDS011;26586;50.708;22.412;2022-08-11T19:07:56;3.38;;;2.28;;
40867;SDS011;26586;50.708;22.412;2022-08-11T19:10:43;4.57;;;2.00;;
40867;SDS011;26586;50.708;22.412;2022-08-11T19:13:29;5.13;;;2.28;;
40867;SDS011;26586;50.708;22.412;2022-08-11T19:16:16;4.03;;;2.17;;
40867;SDS011;26586;50.708;22.412;2022-08-11T19:19:03;3.63;;;1.60;;
40867;SDS011;26586;50.708;22.412;2022-08-11T19:21:50;5.00;;;1.73;;
40867;SDS011;26586;50.708;22.412;2022-08-11T19:24:36;3.10;;;1.88;;
40867;SDS011;26586;50.708;22.412;2022-08-11T19:27:25;4.85;;;1.80;;
40867;SDS011;26586;50.708;22.412;2022-08-11T19:30:12;1.90;;;1.55;;
40867;SDS011;26586;50.708;22.412;2022-08-11T19:32:57;2.78;;;1.38;;